sensor_id;sensor_type;location;lat;lon;timestamp;pressure;altitude;pressure_sealevel;temperature
73734;BMP280;62039;50.000;9.064;2023-07-09T00:00:46;100577.63;;;24.68
73734;BMP280;62039;50.000;9.064;2023-07-09T00:03:13;100574.63;;;24.64
73734;BMP280;62039;50.000;9.064;2023-07-09T00:05:41;100576.16;;;24.60
73734;BMP280;62039;50.000;9.064;2023-07-09T00:08:24;100572.38;;;24.56
73734;BMP280;62039;50.000;9.064;2023-07-09T00:10:52;100570.69;;;24.50
73734;BMP280;62039;50.000;9.064;2023-07-09T00:13:19;100569.56;;;24.46
73734;BMP280;62039;50.000;9.064;2023-07-09T00:15:46;100572.16;;;24.41
73734;BMP280;62039;50.000;9.064;2023-07-09T00:18:13;100576.41;;;24.37
73734;BMP280;62039;50.000;9.064;2023-07-09T00:20:40;100570.72;;;24.34
73734;BMP280;62039;50.000;9.064;2023-07-09T00:23:07;100583.19;;;24.28
73734;BMP280;62039;50.000;9.064;2023-07-09T00:25:36;100586.38;;;24.25
73734;BMP280;62039;50.000;9.064;2023-07-09T00:28:03;100576.69;;;24.19
73734;BMP280;62039;50.000;9.064;2023-07-09T00:30:30;100578.41;;;24.13
73734;BMP280;62039;50.000;9.064;2023-07-09T00:32:57;100585.28;;;24.09
73734;BMP280;62039;50.000;9.064;2023-07-09T00:35:24;100589.50;;;24.05
73734;BMP280;62039;50.000;9.064;2023-07-09T00:37:51;100585.69;;;24.01
73734;BMP280;62039;50.000;9.064;2023-07-09T00:40:20;100592.81;;;23.96
73734;BMP280;62039;50.000;9.064;2023-07-09T00:42:53;100586.09;;;23.93
73734;BMP280;62039;50.000;9.064;2023-07-09T00:45:21;100588.69;;;23.88
73734;BMP280;62039;50.000;9.064;2023-07-09T00:47:54;100587.56;;;23.84
73734;BMP280;62039;50.000;9.064;2023-07-09T00:50:31;100590.94;;;23.79
73734;BMP280;62039;50.000;9.064;2023-07-09T00:53:02;100576.72;;;23.74
73734;BMP280;62039;50.000;9.064;2023-07-09T00:55:33;100586.25;;;23.70
73734;BMP280;62039;50.000;9.064;2023-07-09T00:58:06;100591.25;;;23.66
73734;BMP280;62039;50.000;9.064;2023-07-09T01:00:37;100595.47;;;23.62
73734;BMP280;62039;50.000;9.064;2023-07-09T01:03:06;100583.06;;;23.56
73734;BMP280;62039;50.000;9.064;2023-07-09T01:05:33;100589.13;;;23.52
73734;BMP280;62039;50.000;9.064;2023-07-09T01:08:01;100590.63;;;23.47
73734;BMP280;62039;50.000;9.064;2023-07-09T01:10:28;100595.38;;;23.45
73734;BMP280;62039;50.000;9.064;2023-07-09T01:12:56;100599.59;;;23.41
73734;BMP280;62039;50.000;9.064;2023-07-09T01:15:26;100600.09;;;23.38
73734;BMP280;62039;50.000;9.064;2023-07-09T01:17:53;100601.81;;;23.33
73734;BMP280;62039;50.000;9.064;2023-07-09T01:20:20;100598.59;;;23.31
73734;BMP280;62039;50.000;9.064;2023-07-09T01:22:51;100602.78;;;23.27
73734;BMP280;62039;50.000;9.064;2023-07-09T01:25:18;100596.31;;;23.23
73734;BMP280;62039;50.000;9.064;2023-07-09T01:27:46;100608.47;;;23.19
73734;BMP280;62039;50.000;9.064;2023-07-09T01:30:17;100604.66;;;23.15
73734;BMP280;62039;50.000;9.064;2023-07-09T01:32:45;100601.91;;;23.09
73734;BMP280;62039;50.000;9.064;2023-07-09T01:35:14;100606.09;;;23.05
73734;BMP280;62039;50.000;9.064;2023-07-09T01:37:42;100610.25;;;23.01
73734;BMP280;62039;50.000;9.064;2023-07-09T01:40:14;100610.69;;;22.98
73734;BMP280;62039;50.000;9.064;2023-07-09T01:42:57;100613.28;;;22.93
73734;BMP280;62039;50.000;9.064;2023-07-09T01:45:25;100612.13;;;22.89
73734;BMP280;62039;50.000;9.064;2023-07-09T01:47:52;100618.72;;;22.87
73734;BMP280;62039;50.000;9.064;2023-07-09T01:50:19;100620.81;;;22.85
73734;BMP280;62039;50.000;9.064;2023-07-09T01:52:46;100620.47;;;22.81
73734;BMP280;62039;50.000;9.064;2023-07-09T01:55:16;100618.84;;;22.80
73734;BMP280;62039;50.000;9.064;2023-07-09T01:57:44;100624.66;;;22.77
73734;BMP280;62039;50.000;9.064;2023-07-09T02:00:13;100628.38;;;22.76
73734;BMP280;62039;50.000;9.064;2023-07-09T02:02:40;100634.16;;;22.73
73734;BMP280;62039;50.000;9.064;2023-07-09T02:05:08;100636.25;;;22.71
73734;BMP280;62039;50.000;9.064;2023-07-09T02:07:35;100624.22;;;22.68
73734;BMP280;62039;50.000;9.064;2023-07-09T02:10:03;100630.56;;;22.67
73734;BMP280;62039;50.000;9.064;2023-07-09T02:12:33;100631.03;;;22.64
73734;BMP280;62039;50.000;9.064;2023-07-09T02:15:00;100629.66;;;22.62
73734;BMP280;62039;50.000;9.064;2023-07-09T02:17:27;100630.91;;;22.59
73734;BMP280;62039;50.000;9.064;2023-07-09T02:19:54;100629.53;;;22.57
73734;BMP280;62039;50.000;9.064;2023-07-09T02:22:21;100631.63;;;22.55
73734;BMP280;62039;50.000;9.064;2023-07-09T02:24:48;100632.06;;;22.52
73734;BMP280;62039;50.000;9.064;2023-07-09T02:27:17;100632.53;;;22.49
73734;BMP280;62039;50.000;9.064;2023-07-09T02:29:46;100637.25;;;22.47
73734;BMP280;62039;50.000;9.064;2023-07-09T02:32:17;100633.44;;;22.43
73734;BMP280;62039;50.000;9.064;2023-07-09T02:34:45;100633.09;;;22.39
73734;BMP280;62039;50.000;9.064;2023-07-09T02:37:12;100640.72;;;22.36
73734;BMP280;62039;50.000;9.064;2023-07-09T02:39:40;100638.53;;;22.32
73734;BMP280;62039;50.000;9.064;2023-07-09T02:42:08;100647.53;;;22.31
73734;BMP280;62039;50.000;9.064;2023-07-09T02:44:36;100643.94;;;22.26
73734;BMP280;62039;50.000;9.064;2023-07-09T02:47:06;100639.09;;;22.23
73734;BMP280;62039;50.000;9.064;2023-07-09T02:49:33;100644.06;;;22.19
73734;BMP280;62039;50.000;9.064;2023-07-09T02:52:00;100636.78;;;22.15
73734;BMP280;62039;50.000;9.064;2023-07-09T02:54:27;100643.34;;;22.12
73734;BMP280;62039;50.000;9.064;2023-07-09T02:56:54;100644.06;;;22.08
73734;BMP280;62039;50.000;9.064;2023-07-09T02:59:21;100651.44;;;22.06
73734;BMP280;62039;50.000;9.064;2023-07-09T03:01:49;100648.44;;;22.02
73734;BMP280;62039;50.000;9.064;2023-07-09T03:04:18;100651.09;;;22.02
73734;BMP280;62039;50.000;9.064;2023-07-09T03:06:46;100653.38;;;21.99
73734;BMP280;62039;50.000;9.064;2023-07-09T03:09:13;100653.59;;;21.97
73734;BMP280;62039;50.000;9.064;2023-07-09T03:11:40;100655.72;;;21.95
73734;BMP280;62039;50.000;9.064;2023-07-09T03:14:08;100649.81;;;21.93
73734;BMP280;62039;50.000;9.064;2023-07-09T03:16:35;100646.50;;;21.91
73734;BMP280;62039;50.000;9.064;2023-07-09T03:19:03;100645.69;;;21.90
73734;BMP280;62039;50.000;9.064;2023-07-09T03:21:33;100641.66;;;21.88
73734;BMP280;62039;50.000;9.064;2023-07-09T03:24:00;100643.72;;;21.86
73734;BMP280;62039;50.000;9.064;2023-07-09T03:26:27;100645.81;;;21.84
73734;BMP280;62039;50.000;9.064;2023-07-09T03:28:54;100649.53;;;21.83
73734;BMP280;62039;50.000;9.064;2023-07-09T03:31:22;100648.94;;;21.81
73734;BMP280;62039;50.000;9.064;2023-07-09T03:33:50;100648.34;;;21.79
73734;BMP280;62039;50.000;9.064;2023-07-09T03:36:17;100650.44;;;21.77
73734;BMP280;62039;50.000;9.064;2023-07-09T03:38:47;100659.44;;;21.76
73734;BMP280;62039;50.000;9.064;2023-07-09T03:41:15;100650.06;;;21.73
73734;BMP280;62039;50.000;9.064;2023-07-09T03:43:42;100656.63;;;21.71
73734;BMP280;62039;50.000;9.064;2023-07-09T03:46:09;100655.25;;;21.68
73734;BMP280;62039;50.000;9.064;2023-07-09T03:48:36;100660.78;;;21.67
73734;BMP280;62039;50.000;9.064;2023-07-09T03:51:03;100662.03;;;21.64
73734;BMP280;62039;50.000;9.064;2023-07-09T03:53:30;100663.31;;;21.62
73734;BMP280;62039;50.000;9.064;2023-07-09T03:56:00;100668.63;;;21.62
73734;BMP280;62039;50.000;9.064;2023-07-09T03:58:27;100661.31;;;21.57
73734;BMP280;62039;50.000;9.064;2023-07-09T04:00:54;100670.34;;;21.56
73734;BMP280;62039;50.000;9.064;2023-07-09T04:03:22;100670.56;;;21.54
73734;BMP280;62039;50.000;9.064;2023-07-09T04:05:50;100670.78;;;21.53
73734;BMP280;62039;50.000;9.064;2023-07-09T04:08:17;100677.34;;;21.50
73734;BMP280;62039;50.000;9.064;2023-07-09T04:10:44;100673.09;;;21.49
73734;BMP280;62039;50.000;9.064;2023-07-09T04:13:13;100679.44;;;21.48
73734;BMP280;62039;50.000;9.064;2023-07-09T04:15:40;100680.47;;;21.47
73734;BMP280;62039;50.000;9.064;2023-07-09T04:18:07;100679.66;;;21.47
73734;BMP280;62039;50.000;9.064;2023-07-09T04:20:34;100690.28;;;21.47
73734;BMP280;62039;50.000;9.064;2023-07-09T04:23:02;100687.63;;;21.47
73734;BMP280;62039;50.000;9.064;2023-07-09T04:25:29;100688.66;;;21.46
73734;BMP280;62039;50.000;9.064;2023-07-09T04:27:56;100688.44;;;21.47
73734;BMP280;62039;50.000;9.064;2023-07-09T04:30:26;100689.25;;;21.48
73734;BMP280;62039;50.000;9.064;2023-07-09T04:32:53;100700.69;;;21.48
73734;BMP280;62039;50.000;9.064;2023-07-09T04:35:20;100697.00;;;21.49
73734;BMP280;62039;50.000;9.064;2023-07-09T04:37:47;100700.22;;;21.51
73734;BMP280;62039;50.000;9.064;2023-07-09T04:40:14;100704.50;;;21.52
73734;BMP280;62039;50.000;9.064;2023-07-09T04:42:41;100697.34;;;21.53
73734;BMP280;62039;50.000;9.064;2023-07-09T04:45:11;100698.78;;;21.56
73734;BMP280;62039;50.000;9.064;2023-07-09T04:47:40;100694.84;;;21.58
73734;BMP280;62039;50.000;9.064;2023-07-09T04:50:08;100693.59;;;21.61
73734;BMP280;62039;50.000;9.064;2023-07-09T04:52:35;100693.94;;;21.64
73734;BMP280;62039;50.000;9.064;2023-07-09T04:55:04;100681.03;;;21.68
73734;BMP280;62039;50.000;9.064;2023-07-09T04:57:31;100688.53;;;21.71
73734;BMP280;62039;50.000;9.064;2023-07-09T04:59:58;100687.28;;;21.73
73734;BMP280;62039;50.000;9.064;2023-07-09T05:02:25;100679.44;;;21.78
73734;BMP280;62039;50.000;9.064;2023-07-09T05:04:54;100689.41;;;21.83
73734;BMP280;62039;50.000;9.064;2023-07-09T05:07:21;100688.13;;;21.85
73734;BMP280;62039;50.000;9.064;2023-07-09T05:09:49;100685.84;;;21.89
73734;BMP280;62039;50.000;9.064;2023-07-09T05:12:16;100688.66;;;21.94
73734;BMP280;62039;50.000;9.064;2023-07-09T05:14:42;100686.13;;;21.99
73734;BMP280;62039;50.000;9.064;2023-07-09T05:17:09;100688.13;;;22.04
73734;BMP280;62039;50.000;9.064;2023-07-09T05:19:36;100693.34;;;22.10
73734;BMP280;62039;50.000;9.064;2023-07-09T05:22:07;100695.91;;;22.17
73734;BMP280;62039;50.000;9.064;2023-07-09T05:24:34;100692.06;;;22.24
73734;BMP280;62039;50.000;9.064;2023-07-09T05:27:01;100691.75;;;22.32
73734;BMP280;62039;50.000;9.064;2023-07-09T05:29:28;100679.72;;;22.42
73734;BMP280;62039;50.000;9.064;2023-07-09T05:31:55;100681.28;;;22.49
73734;BMP280;62039;50.000;9.064;2023-07-09T05:34:22;100678.03;;;22.59
73734;BMP280;62039;50.000;9.064;2023-07-09T05:36:48;100680.34;;;22.67
73734;BMP280;62039;50.000;9.064;2023-07-09T05:39:18;100672.81;;;22.76
73734;BMP280;62039;50.000;9.064;2023-07-09T05:41:45;100681.50;;;22.83
73734;BMP280;62039;50.000;9.064;2023-07-09T05:44:12;100686.22;;;22.92
73734;BMP280;62039;50.000;9.064;2023-07-09T05:46:39;100683.22;;;23.00
73734;BMP280;62039;50.000;9.064;2023-07-09T05:49:06;100674.66;;;23.10
73734;BMP280;62039;50.000;9.064;2023-07-09T05:51:33;100682.63;;;23.22
73734;BMP280;62039;50.000;9.064;2023-07-09T05:54:00;100684.44;;;23.33
73734;BMP280;62039;50.000;9.064;2023-07-09T05:56:30;100675.34;;;23.45
73734;BMP280;62039;50.000;9.064;2023-07-09T05:58:57;100677.19;;;23.57
73734;BMP280;62039;50.000;9.064;2023-07-09T06:01:24;100683.06;;;23.70
73734;BMP280;62039;50.000;9.064;2023-07-09T06:03:52;100683.81;;;23.82
73734;BMP280;62039;50.000;9.064;2023-07-09T06:06:19;100693.38;;;23.95
73734;BMP280;62039;50.000;9.064;2023-07-09T06:08:46;100682.63;;;24.07
73734;BMP280;62039;50.000;9.064;2023-07-09T06:11:13;100689.53;;;24.19
73734;BMP280;62039;50.000;9.064;2023-07-09T06:13:43;100687.34;;;24.33
73734;BMP280;62039;50.000;9.064;2023-07-09T06:16:10;100684.63;;;24.45
73734;BMP280;62039;50.000;9.064;2023-07-09T06:18:37;100682.44;;;24.58
73734;BMP280;62039;50.000;9.064;2023-07-09T06:21:04;100689.06;;;24.73
73734;BMP280;62039;50.000;9.064;2023-07-09T06:23:31;100693.00;;;24.87
73734;BMP280;62039;50.000;9.064;2023-07-09T06:25:58;100686.22;;;25.01
73734;BMP280;62039;50.000;9.064;2023-07-09T06:28:26;100689.34;;;25.15
73734;BMP280;62039;50.000;9.064;2023-07-09T06:30:56;100694.09;;;25.29
73734;BMP280;62039;50.000;9.064;2023-07-09T06:33:25;100694.78;;;25.41
73734;BMP280;62039;50.000;9.064;2023-07-09T06:35:54;100699.50;;;25.56
73734;BMP280;62039;50.000;9.064;2023-07-09T06:38:21;100691.88;;;25.70
73734;BMP280;62039;50.000;9.064;2023-07-09T06:40:49;100698.47;;;25.84
73734;BMP280;62039;50.000;9.064;2023-07-09T06:43:16;100706.91;;;25.98
73734;BMP280;62039;50.000;9.064;2023-07-09T06:45:51;100693.09;;;26.11
73734;BMP280;62039;50.000;9.064;2023-07-09T06:48:21;100696.44;;;26.23
73734;BMP280;62039;50.000;9.064;2023-07-09T06:50:49;100703.78;;;26.38
73734;BMP280;62039;50.000;9.064;2023-07-09T06:53:16;100702.03;;;26.53
73734;BMP280;62039;50.000;9.064;2023-07-09T06:55:43;100702.38;;;26.67
73734;BMP280;62039;50.000;9.064;2023-07-09T06:58:10;100698.75;;;26.83
73734;BMP280;62039;50.000;9.064;2023-07-09T07:00:37;100696.69;;;27.01
73734;BMP280;62039;50.000;9.064;2023-07-09T07:03:05;100694.88;;;27.16
73734;BMP280;62039;50.000;9.064;2023-07-09T07:05:35;100689.34;;;27.33
73734;BMP280;62039;50.000;9.064;2023-07-09T07:08:03;100696.09;;;27.51
73734;BMP280;62039;50.000;9.064;2023-07-09T07:10:30;100687.81;;;27.67
73734;BMP280;62039;50.000;9.064;2023-07-09T07:12:57;100684.09;;;27.84
73734;BMP280;62039;50.000;9.064;2023-07-09T07:15:24;100683.56;;;27.97
73734;BMP280;62039;50.000;9.064;2023-07-09T07:17:51;100670.72;;;28.14
73734;BMP280;62039;50.000;9.064;2023-07-09T07:20:18;100663.75;;;28.28
73734;BMP280;62039;50.000;9.064;2023-07-09T07:22:48;100666.94;;;28.45
73734;BMP280;62039;50.000;9.064;2023-07-09T07:25:15;100670.94;;;28.63
73734;BMP280;62039;50.000;9.064;2023-07-09T07:27:42;100670.63;;;28.80
73734;BMP280;62039;50.000;9.064;2023-07-09T07:30:10;100665.19;;;29.00
73734;BMP280;62039;50.000;9.064;2023-07-09T07:32:38;100666.19;;;29.19
73734;BMP280;62039;50.000;9.064;2023-07-09T07:35:06;100670.16;;;29.37
73734;BMP280;62039;50.000;9.064;2023-07-09T07:37:33;100671.38;;;29.55
73734;BMP280;62039;50.000;9.064;2023-07-09T07:40:04;100663.50;;;29.68
73734;BMP280;62039;50.000;9.064;2023-07-09T07:42:31;100668.25;;;29.82
73734;BMP280;62039;50.000;9.064;2023-07-09T07:44:58;100658.50;;;29.91
73734;BMP280;62039;50.000;9.064;2023-07-09T07:47:25;100650.03;;;30.02
73734;BMP280;62039;50.000;9.064;2023-07-09T07:49:52;100650.50;;;30.15
73734;BMP280;62039;50.000;9.064;2023-07-09T07:52:19;100653.59;;;30.27
73734;BMP280;62039;50.000;9.064;2023-07-09T07:54:46;100649.22;;;30.36
73734;BMP280;62039;50.000;9.064;2023-07-09T07:57:16;100650.69;;;30.47
73734;BMP280;62039;50.000;9.064;2023-07-09T07:59:43;100639.59;;;30.54
73734;BMP280;62039;50.000;9.064;2023-07-09T08:02:11;100650.28;;;30.64
73734;BMP280;62039;50.000;9.064;2023-07-09T08:04:39;100650.97;;;30.74
73734;BMP280;62039;50.000;9.064;2023-07-09T08:07:07;100654.63;;;30.83
73734;BMP280;62039;50.000;9.064;2023-07-09T08:09:34;100649.94;;;30.94
73734;BMP280;62039;50.000;9.064;2023-07-09T08:12:02;100647.13;;;31.04
73734;BMP280;62039;50.000;9.064;2023-07-09T08:14:31;100648.38;;;31.12
73734;BMP280;62039;50.000;9.064;2023-07-09T08:16:58;100642.31;;;31.20
73734;BMP280;62039;50.000;9.064;2023-07-09T08:19:25;100640.56;;;31.29
73734;BMP280;62039;50.000;9.064;2023-07-09T08:21:53;100643.16;;;31.39
73734;BMP280;62039;50.000;9.064;2023-07-09T08:24:20;100643.00;;;31.49
73734;BMP280;62039;50.000;9.064;2023-07-09T08:26:47;100639.03;;;31.60
73734;BMP280;62039;50.000;9.064;2023-07-09T08:29:14;100640.19;;;31.73
73734;BMP280;62039;50.000;9.064;2023-07-09T08:31:43;100641.84;;;31.88
73734;BMP280;62039;50.000;9.064;2023-07-09T08:34:10;100632.22;;;32.01
73734;BMP280;62039;50.000;9.064;2023-07-09T08:36:37;100636.50;;;32.15
73734;BMP280;62039;50.000;9.064;2023-07-09T08:39:04;100631.38;;;32.32
73734;BMP280;62039;50.000;9.064;2023-07-09T08:41:40;100619.94;;;32.49
73734;BMP280;62039;50.000;9.064;2023-07-09T08:44:21;100617.75;;;32.65
73734;BMP280;62039;50.000;9.064;2023-07-09T08:47:00;100616.38;;;32.81
73734;BMP280;62039;50.000;9.064;2023-07-09T08:49:37;100615.44;;;32.99
73734;BMP280;62039;50.000;9.064;2023-07-09T08:52:10;100622.09;;;33.15
73734;BMP280;62039;50.000;9.064;2023-07-09T08:54:40;100620.66;;;33.32
73734;BMP280;62039;50.000;9.064;2023-07-09T08:57:17;100621.00;;;33.52
73734;BMP280;62039;50.000;9.064;2023-07-09T08:59:46;100617.81;;;33.73
73734;BMP280;62039;50.000;9.064;2023-07-09T09:02:30;100615.41;;;33.94
73734;BMP280;62039;50.000;9.064;2023-07-09T09:04:58;100616.94;;;34.17
73734;BMP280;62039;50.000;9.064;2023-07-09T09:07:36;100604.44;;;34.38
73734;BMP280;62039;50.000;9.064;2023-07-09T09:10:05;100613.09;;;34.57
73734;BMP280;62039;50.000;9.064;2023-07-09T09:12:36;100612.06;;;34.76
73734;BMP280;62039;50.000;9.064;2023-07-09T09:15:11;100613.69;;;34.94
73734;BMP280;62039;50.000;9.064;2023-07-09T09:17:42;100605.88;;;35.10
73734;BMP280;62039;50.000;9.064;2023-07-09T09:20:13;100600.63;;;35.22
73734;BMP280;62039;50.000;9.064;2023-07-09T09:22:46;100607.50;;;35.36
73734;BMP280;62039;50.000;9.064;2023-07-09T09:25:23;100603.31;;;35.47
73734;BMP280;62039;50.000;9.064;2023-07-09T09:27:51;100595.03;;;35.53
73734;BMP280;62039;50.000;9.064;2023-07-09T09:30:21;100593.72;;;35.59
73734;BMP280;62039;50.000;9.064;2023-07-09T09:32:53;100592.44;;;35.65
73734;BMP280;62039;50.000;9.064;2023-07-09T09:35:26;100599.78;;;35.73
73734;BMP280;62039;50.000;9.064;2023-07-09T09:37:56;100590.31;;;35.79
73734;BMP280;62039;50.000;9.064;2023-07-09T09:40:26;100592.22;;;35.87
73734;BMP280;62039;50.000;9.064;2023-07-09T09:42:55;100589.19;;;35.97
73734;BMP280;62039;50.000;9.064;2023-07-09T09:45:26;100576.81;;;36.08
73734;BMP280;62039;50.000;9.064;2023-07-09T09:47:59;100591.63;;;36.19
73734;BMP280;62039;50.000;9.064;2023-07-09T09:50:30;100592.91;;;36.31
73734;BMP280;62039;50.000;9.064;2023-07-09T09:52:59;100594.59;;;36.44
73734;BMP280;62039;50.000;9.064;2023-07-09T09:55:29;100591.94;;;36.56
73734;BMP280;62039;50.000;9.064;2023-07-09T09:57:56;100586.47;;;36.65
73734;BMP280;62039;50.000;9.064;2023-07-09T10:00:26;100584.16;;;36.75
73734;BMP280;62039;50.000;9.064;2023-07-09T10:03:00;100593.19;;;36.88
73734;BMP280;62039;50.000;9.064;2023-07-09T10:05:32;100583.84;;;36.97
73734;BMP280;62039;50.000;9.064;2023-07-09T10:08:03;100593.38;;;37.04
73734;BMP280;62039;50.000;9.064;2023-07-09T10:10:33;100576.38;;;37.07
73734;BMP280;62039;50.000;9.064;2023-07-09T10:13:05;100586.75;;;37.13
73734;BMP280;62039;50.000;9.064;2023-07-09T10:15:39;100580.44;;;37.21
73734;BMP280;62039;50.000;9.064;2023-07-09T10:18:21;100580.84;;;37.32
73734;BMP280;62039;50.000;9.064;2023-07-09T10:21:04;100573.03;;;37.43
73734;BMP280;62039;50.000;9.064;2023-07-09T10:23:37;100580.44;;;37.54
73734;BMP280;62039;50.000;9.064;2023-07-09T10:26:10;100573.00;;;37.63
73734;BMP280;62039;50.000;9.064;2023-07-09T10:31:41;100564.44;;;37.86
73734;BMP280;62039;50.000;9.064;2023-07-09T10:34:24;100567.94;;;37.98
73734;BMP280;62039;50.000;9.064;2023-07-09T10:37:15;100567.28;;;38.13
73734;BMP280;62039;50.000;9.064;2023-07-09T10:39:49;100557.28;;;38.30
73734;BMP280;62039;50.000;9.064;2023-07-09T10:42:21;100554.66;;;38.45
73734;BMP280;62039;50.000;9.064;2023-07-09T10:44:54;100552.38;;;38.60
73734;BMP280;62039;50.000;9.064;2023-07-09T10:47:29;100548.47;;;38.73
73734;BMP280;62039;50.000;9.064;2023-07-09T10:50:01;100537.16;;;38.86
73734;BMP280;62039;50.000;9.064;2023-07-09T10:52:30;100534.84;;;39.01
73734;BMP280;62039;50.000;9.064;2023-07-09T10:55:02;100537.88;;;39.11
73734;BMP280;62039;50.000;9.064;2023-07-09T10:57:38;100531.91;;;39.21
73734;BMP280;62039;50.000;9.064;2023-07-09T11:02:39;100522.94;;;39.37
73734;BMP280;62039;50.000;9.064;2023-07-09T11:05:09;100523.56;;;39.46
73734;BMP280;62039;50.000;9.064;2023-07-09T11:07:39;100529.69;;;39.55
73734;BMP280;62039;50.000;9.064;2023-07-09T11:10:14;100527.88;;;39.62
73734;BMP280;62039;50.000;9.064;2023-07-09T11:12:46;100523.00;;;39.68
73734;BMP280;62039;50.000;9.064;2023-07-09T11:15:24;100520.69;;;39.70
73734;BMP280;62039;50.000;9.064;2023-07-09T11:17:52;100516.81;;;39.71
73734;BMP280;62039;50.000;9.064;2023-07-09T11:20:25;100516.13;;;39.74
73734;BMP280;62039;50.000;9.064;2023-07-09T11:22:54;100514.59;;;39.77
73734;BMP280;62039;50.000;9.064;2023-07-09T11:28:33;100505.09;;;39.71
73734;BMP280;62039;50.000;9.064;2023-07-09T11:31:06;100511.88;;;39.61
73734;BMP280;62039;50.000;9.064;2023-07-09T11:33:33;100501.63;;;39.58
73734;BMP280;62039;50.000;9.064;2023-07-09T11:36:10;100502.34;;;39.55
73734;BMP280;62039;50.000;9.064;2023-07-09T11:38:41;100506.91;;;39.51
73734;BMP280;62039;50.000;9.064;2023-07-09T11:41:26;100513.09;;;39.48
73734;BMP280;62039;50.000;9.064;2023-07-09T11:44:03;100512.81;;;39.37
73734;BMP280;62039;50.000;9.064;2023-07-09T11:46:31;100510.34;;;39.32
73734;BMP280;62039;50.000;9.064;2023-07-09T11:49:00;100505.47;;;39.25
73734;BMP280;62039;50.000;9.064;2023-07-09T11:51:46;100502.91;;;39.17
73734;BMP280;62039;50.000;9.064;2023-07-09T11:54:15;100491.09;;;39.13
73734;BMP280;62039;50.000;9.064;2023-07-09T11:56:42;100495.31;;;39.10
73734;BMP280;62039;50.000;9.064;2023-07-09T11:59:19;100501.91;;;39.09
73734;BMP280;62039;50.000;9.064;2023-07-09T12:01:47;100493.03;;;39.12
73734;BMP280;62039;50.000;9.064;2023-07-09T12:04:16;100493.84;;;39.13
73734;BMP280;62039;50.000;9.064;2023-07-09T12:06:46;100488.72;;;39.11
73734;BMP280;62039;50.000;9.064;2023-07-09T12:09:15;100484.75;;;39.09
73734;BMP280;62039;50.000;9.064;2023-07-09T12:11:44;100473.81;;;39.09
73734;BMP280;62039;50.000;9.064;2023-07-09T12:14:13;100472.34;;;39.11
73734;BMP280;62039;50.000;9.064;2023-07-09T12:16:42;100478.25;;;39.13
73734;BMP280;62039;50.000;9.064;2023-07-09T12:19:09;100477.53;;;39.16
73734;BMP280;62039;50.000;9.064;2023-07-09T12:21:38;100475.25;;;39.18
73734;BMP280;62039;50.000;9.064;2023-07-09T12:24:19;100468.72;;;39.23
73734;BMP280;62039;50.000;9.064;2023-07-09T12:26:48;100465.75;;;39.28
73734;BMP280;62039;50.000;9.064;2023-07-09T12:29:15;100457.66;;;39.32
73734;BMP280;62039;50.000;9.064;2023-07-09T12:31:42;100465.94;;;39.35
73734;BMP280;62039;50.000;9.064;2023-07-09T12:34:11;100445.78;;;39.40
73734;BMP280;62039;50.000;9.064;2023-07-09T12:36:43;100454.16;;;39.47
73734;BMP280;62039;50.000;9.064;2023-07-09T12:39:11;100453.88;;;39.52
73734;BMP280;62039;50.000;9.064;2023-07-09T12:41:42;100444.59;;;39.56
73734;BMP280;62039;50.000;9.064;2023-07-09T12:44:18;100445.56;;;39.64
73734;BMP280;62039;50.000;9.064;2023-07-09T12:46:46;100435.97;;;39.70
73734;BMP280;62039;50.000;9.064;2023-07-09T12:49:20;100435.00;;;39.78
73734;BMP280;62039;50.000;9.064;2023-07-09T12:51:48;100435.94;;;39.86
73734;BMP280;62039;50.000;9.064;2023-07-09T12:54:16;100424.38;;;39.92
73734;BMP280;62039;50.000;9.064;2023-07-09T12:56:47;100419.41;;;39.98
73734;BMP280;62039;50.000;9.064;2023-07-09T12:59:20;100414.03;;;40.01
73734;BMP280;62039;50.000;9.064;2023-07-09T13:01:48;100410.59;;;40.04
73734;BMP280;62039;50.000;9.064;2023-07-09T13:04:16;100407.16;;;40.08
73734;BMP280;62039;50.000;9.064;2023-07-09T13:06:44;100406.00;;;40.09
73734;BMP280;62039;50.000;9.064;2023-07-09T13:09:18;100402.91;;;40.10
73734;BMP280;62039;50.000;9.064;2023-07-09T13:11:48;100399.81;;;40.12
73734;BMP280;62039;50.000;9.064;2023-07-09T13:14:21;100383.41;;;40.12
73734;BMP280;62039;50.000;9.064;2023-07-09T13:16:48;100385.00;;;40.13
73734;BMP280;62039;50.000;9.064;2023-07-09T13:19:16;100374.91;;;40.17
73734;BMP280;62039;50.000;9.064;2023-07-09T13:21:43;100376.56;;;40.21
73734;BMP280;62039;50.000;9.064;2023-07-09T13:24:20;100372.75;;;40.26
73734;BMP280;62039;50.000;9.064;2023-07-09T13:26:51;100374.38;;;40.30
73734;BMP280;62039;50.000;9.064;2023-07-09T13:29:20;100373.59;;;40.30
73734;BMP280;62039;50.000;9.064;2023-07-09T13:31:47;100380.66;;;40.31
73734;BMP280;62039;50.000;9.064;2023-07-09T13:34:21;100368.13;;;40.30
73734;BMP280;62039;50.000;9.064;2023-07-09T13:36:49;100370.00;;;40.26
73734;BMP280;62039;50.000;9.064;2023-07-09T13:39:16;100362.50;;;40.23
73734;BMP280;62039;50.000;9.064;2023-07-09T13:41:43;100370.72;;;40.23
73734;BMP280;62039;50.000;9.064;2023-07-09T13:44:17;100366.44;;;40.22
73734;BMP280;62039;50.000;9.064;2023-07-09T13:46:44;100361.66;;;40.19
73734;BMP280;62039;50.000;9.064;2023-07-09T13:49:12;100363.56;;;40.15
73734;BMP280;62039;50.000;9.064;2023-07-09T13:51:40;100363.75;;;40.06
73734;BMP280;62039;50.000;9.064;2023-07-09T13:54:15;100371.34;;;39.97
73734;BMP280;62039;50.000;9.064;2023-07-09T13:56:43;100364.53;;;39.87
73734;BMP280;62039;50.000;9.064;2023-07-09T13:59:19;100358.47;;;39.78
73734;BMP280;62039;50.000;9.064;2023-07-09T14:01:47;100364.91;;;39.70
73734;BMP280;62039;50.000;9.064;2023-07-09T14:04:16;100363.59;;;39.64
73734;BMP280;62039;50.000;9.064;2023-07-09T14:06:44;100362.28;;;39.58
73734;BMP280;62039;50.000;9.064;2023-07-09T14:09:11;100367.25;;;39.52
73734;BMP280;62039;50.000;9.064;2023-07-09T14:11:41;100362.84;;;39.48
73734;BMP280;62039;50.000;9.064;2023-07-09T14:14:20;100362.69;;;39.41
73734;BMP280;62039;50.000;9.064;2023-07-09T14:16:48;100359.06;;;39.37